sensor_id;sensor_type;location;lat;lon;timestamp;pressure;altitude;pressure_sealevel;temperature;humidity
30110;BME280;14965;50.660;13.226;2023-04-26T00:01:46;94681.09;;;2.83;87.36
30110;BME280;14965;50.660;13.226;2023-04-26T00:04:12;94681.91;;;2.76;88.00
30110;BME280;14965;50.660;13.226;2023-04-26T00:06:38;94679.53;;;2.74;88.55
30110;BME280;14965;50.660;13.226;2023-04-26T00:09:04;94677.59;;;2.71;88.63
30110;BME280;14965;50.660;13.226;2023-04-26T00:11:30;94676.81;;;2.71;89.03
30110;BME280;14965;50.660;13.226;2023-04-26T00:13:58;94675.28;;;2.70;89.31
30110;BME280;14965;50.660;13.226;2023-04-26T00:16:24;94683.44;;;2.66;89.66
30110;BME280;14965;50.660;13.226;2023-04-26T00:18:50;94671.38;;;2.67;89.39
30110;BME280;14965;50.660;13.226;2023-04-26T00:21:16;94678.78;;;2.70;90.05
30110;BME280;14965;50.660;13.226;2023-04-26T00:23:42;94674.50;;;2.73;90.39
30110;BME280;14965;50.660;13.226;2023-04-26T00:26:08;94672.13;;;2.79;90.24
30110;BME280;14965;50.660;13.226;2023-04-26T00:28:33;94672.91;;;2.79;90.40
30110;BME280;14965;50.660;13.226;2023-04-26T00:31:01;94681.91;;;2.76;90.48
30110;BME280;14965;50.660;13.226;2023-04-26T00:33:26;94676.03;;;2.70;90.90
30110;BME280;14965;50.660;13.226;2023-04-26T00:35:52;94676.44;;;2.72;90.30
30110;BME280;14965;50.660;13.226;2023-04-26T00:38:18;94678.00;;;2.73;90.57
30110;BME280;14965;50.660;13.226;2023-04-26T00:40:44;94676.81;;;2.78;90.54
30110;BME280;14965;50.660;13.226;2023-04-26T00:43:10;94678.38;;;2.83;91.42
30110;BME280;14965;50.660;13.226;2023-04-26T00:45:36;94683.03;;;2.86;90.66
30110;BME280;14965;50.660;13.226;2023-04-26T00:48:04;94677.97;;;2.88;91.09
30110;BME280;14965;50.660;13.226;2023-04-26T00:50:30;94685.00;;;2.89;91.01
30110;BME280;14965;50.660;13.226;2023-04-26T00:52:58;94681.84;;;2.90;91.00
30110;BME280;14965;50.660;13.226;2023-04-26T00:55:24;94683.03;;;2.93;91.25
30110;BME280;14965;50.660;13.226;2023-04-26T00:57:51;94679.91;;;2.91;91.03
30110;BME280;14965;50.660;13.226;2023-04-26T01:00:17;94674.09;;;2.85;90.98
30110;BME280;14965;50.660;13.226;2023-04-26T01:02:43;94685.78;;;2.82;91.25
30110;BME280;14965;50.660;13.226;2023-04-26T01:05:11;94682.28;;;2.78;91.03
30110;BME280;14965;50.660;13.226;2023-04-26T01:07:37;94679.16;;;2.76;91.17
30110;BME280;14965;50.660;13.226;2023-04-26T01:10:04;94677.59;;;2.75;91.77
30110;BME280;14965;50.660;13.226;2023-04-26T01:12:31;94682.28;;;2.74;91.02
30110;BME280;14965;50.660;13.226;2023-04-26T01:14:58;94686.19;;;2.73;91.53
30110;BME280;14965;50.660;13.226;2023-04-26T01:17:24;94686.94;;;2.74;91.35
30110;BME280;14965;50.660;13.226;2023-04-26T01:19:51;94686.94;;;2.74;91.19
30110;BME280;14965;50.660;13.226;2023-04-26T01:22:18;94689.31;;;2.72;91.37
30110;BME280;14965;50.660;13.226;2023-04-26T01:24:50;94696.69;;;2.71;91.45
30110;BME280;14965;50.660;13.226;2023-04-26T01:27:19;94689.69;;;2.67;90.99
30110;BME280;14965;50.660;13.226;2023-04-26T01:29:45;94699.06;;;2.55;90.66
30110;BME280;14965;50.660;13.226;2023-04-26T01:32:11;94695.94;;;2.46;91.22
30110;BME280;14965;50.660;13.226;2023-04-26T01:34:36;94708.41;;;2.40;91.44
30110;BME280;14965;50.660;13.226;2023-04-26T01:37:02;94707.22;;;2.41;92.23
30110;BME280;14965;50.660;13.226;2023-04-26T01:39:29;94708.00;;;2.41;91.72
30110;BME280;14965;50.660;13.226;2023-04-26T01:41:57;94703.72;;;2.33;92.51
30110;BME280;14965;50.660;13.226;2023-04-26T01:44:23;94708.81;;;2.35;92.60
30110;BME280;14965;50.660;13.226;2023-04-26T01:46:49;94715.44;;;2.30;93.25
30110;BME280;14965;50.660;13.226;2023-04-26T01:49:15;94715.41;;;2.27;93.95
30110;BME280;14965;50.660;13.226;2023-04-26T01:51:41;94714.63;;;2.22;94.04
30110;BME280;14965;50.660;13.226;2023-04-26T01:54:07;94722.41;;;2.20;94.44
30110;BME280;14965;50.660;13.226;2023-04-26T01:56:32;94721.22;;;2.21;94.51
30110;BME280;14965;50.660;13.226;2023-04-26T01:59:00;94717.38;;;2.22;94.91
30110;BME280;14965;50.660;13.226;2023-04-26T02:01:26;94730.22;;;2.22;95.07
30110;BME280;14965;50.660;13.226;2023-04-26T02:03:51;94725.13;;;2.24;94.62
30110;BME280;14965;50.660;13.226;2023-04-26T02:06:17;94719.69;;;2.28;95.44
30110;BME280;14965;50.660;13.226;2023-04-26T02:08:44;94719.28;;;2.25;94.60
30110;BME280;14965;50.660;13.226;2023-04-26T02:11:10;94719.28;;;2.25;95.32
30110;BME280;14965;50.660;13.226;2023-04-26T02:13:36;94718.50;;;2.21;94.74
30110;BME280;14965;50.660;13.226;2023-04-26T02:16:04;94718.91;;;2.20;95.34
30110;BME280;14965;50.660;13.226;2023-04-26T02:18:30;94721.22;;;2.21;94.67
30110;BME280;14965;50.660;13.226;2023-04-26T02:20:55;94715.00;;;2.21;95.33
30110;BME280;14965;50.660;13.226;2023-04-26T02:23:21;94719.31;;;2.18;95.17
30110;BME280;14965;50.660;13.226;2023-04-26T02:25:47;94718.91;;;2.09;94.78
30110;BME280;14965;50.660;13.226;2023-04-26T02:28:13;94711.88;;;2.08;94.64
30110;BME280;14965;50.660;13.226;2023-04-26T02:30:40;94711.88;;;2.08;95.48
30110;BME280;14965;50.660;13.226;2023-04-26T02:33:07;94711.09;;;2.04;95.51
30110;BME280;14965;50.660;13.226;2023-04-26T02:35:34;94713.47;;;2.06;95.02
30110;BME280;14965;50.660;13.226;2023-04-26T02:38:00;94711.09;;;2.04;95.25
30110;BME280;14965;50.660;13.226;2023-04-26T02:40:26;94709.53;;;1.99;95.18
30110;BME280;14965;50.660;13.226;2023-04-26T02:42:51;94712.66;;;1.98;95.73
30110;BME280;14965;50.660;13.226;2023-04-26T02:45:17;94711.91;;;2.01;95.73
30110;BME280;14965;50.660;13.226;2023-04-26T02:47:43;94710.31;;;2.04;95.54
30110;BME280;14965;50.660;13.226;2023-04-26T02:50:11;94705.66;;;2.08;95.79
30110;BME280;14965;50.660;13.226;2023-04-26T02:52:37;94708.41;;;2.11;95.42
30110;BME280;14965;50.660;13.226;2023-04-26T02:55:04;94709.19;;;2.15;95.20
30110;BME280;14965;50.660;13.226;2023-04-26T02:57:30;94717.75;;;2.17;95.17
30110;BME280;14965;50.660;13.226;2023-04-26T02:59:56;94709.97;;;2.19;95.35
30110;BME280;14965;50.660;13.226;2023-04-26T03:02:22;94717.38;;;2.22;95.32
30110;BME280;14965;50.660;13.226;2023-04-26T03:04:48;94709.56;;;2.24;95.25
30110;BME280;14965;50.660;13.226;2023-04-26T03:07:15;94698.66;;;2.24;94.90
30110;BME280;14965;50.660;13.226;2023-04-26T03:09:41;94711.50;;;2.20;94.23
30110;BME280;14965;50.660;13.226;2023-04-26T03:12:08;94711.50;;;2.17;94.25
30110;BME280;14965;50.660;13.226;2023-04-26T03:14:34;94710.34;;;2.18;94.41
30110;BME280;14965;50.660;13.226;2023-04-26T03:17:01;94709.56;;;2.21;94.96
30110;BME280;14965;50.660;13.226;2023-04-26T03:19:27;94711.91;;;2.22;94.88
30110;BME280;14965;50.660;13.226;2023-04-26T03:21:53;94716.97;;;2.24;94.32
30110;BME280;14965;50.660;13.226;2023-04-26T03:24:20;94717.38;;;2.26;94.41
30110;BME280;14965;50.660;13.226;2023-04-26T03:26:46;94715.03;;;2.17;94.49
30110;BME280;14965;50.660;13.226;2023-04-26T03:29:13;94716.94;;;2.17;95.17
30110;BME280;14965;50.660;13.226;2023-04-26T03:31:39;94704.50;;;2.19;95.04
30110;BME280;14965;50.660;13.226;2023-04-26T03:34:05;94717.72;;;2.21;94.96
30110;BME280;14965;50.660;13.226;2023-04-26T03:36:31;94707.22;;;2.19;95.06
30110;BME280;14965;50.660;13.226;2023-04-26T03:38:57;94706.06;;;2.20;95.02
30110;BME280;14965;50.660;13.226;2023-04-26T03:41:24;94698.28;;;2.22;94.89
30110;BME280;14965;50.660;13.226;2023-04-26T03:43:50;94708.00;;;2.23;94.35
30110;BME280;14965;50.660;13.226;2023-04-26T03:46:16;94706.06;;;2.20;95.23
30110;BME280;14965;50.660;13.226;2023-04-26T03:48:41;94709.59;;;2.17;94.86
30110;BME280;14965;50.660;13.226;2023-04-26T03:51:07;94704.50;;;2.16;95.54
30110;BME280;14965;50.660;13.226;2023-04-26T03:53:33;94713.84;;;2.15;94.90
30110;BME280;14965;50.660;13.226;2023-04-26T03:55:59;94717.75;;;2.10;94.79
30110;BME280;14965;50.660;13.226;2023-04-26T03:58:27;94722.78;;;2.08;95.26
30110;BME280;14965;50.660;13.226;2023-04-26T04:00:55;94722.41;;;2.06;95.06
30110;BME280;14965;50.660;13.226;2023-04-26T04:03:21;94730.19;;;2.08;94.88
30110;BME280;14965;50.660;13.226;2023-04-26T04:05:47;94727.47;;;2.11;95.22
30110;BME280;14965;50.660;13.226;2023-04-26T04:08:13;94726.69;;;2.11;94.13
30110;BME280;14965;50.660;13.226;2023-04-26T04:10:39;94719.28;;;2.08;93.84
30110;BME280;14965;50.660;13.226;2023-04-26T04:13:05;94721.63;;;2.02;94.05
30110;BME280;14965;50.660;13.226;2023-04-26T04:15:32;94720.84;;;2.05;94.31
30110;BME280;14965;50.660;13.226;2023-04-26T04:17:58;94722.38;;;1.99;93.93
30110;BME280;14965;50.660;13.226;2023-04-26T04:20:24;94729.00;;;2.02;94.26
30110;BME280;14965;50.660;13.226;2023-04-26T04:22:49;94727.44;;;2.04;93.79
30110;BME280;14965;50.660;13.226;2023-04-26T04:25:16;94727.84;;;2.06;94.22
30110;BME280;14965;50.660;13.226;2023-04-26T04:27:45;94733.31;;;2.06;94.06
30110;BME280;14965;50.660;13.226;2023-04-26T04:30:11;94725.09;;;1.99;93.08
30110;BME280;14965;50.660;13.226;2023-04-26T04:32:38;94727.06;;;2.06;93.76
30110;BME280;14965;50.660;13.226;2023-04-26T04:35:05;94729.81;;;2.09;93.64
30110;BME280;14965;50.660;13.226;2023-04-26T04:37:30;94736.03;;;2.10;94.29
30110;BME280;14965;50.660;13.226;2023-04-26T04:39:56;94735.25;;;2.09;94.24
30110;BME280;14965;50.660;13.226;2023-04-26T04:42:22;94736.78;;;2.07;93.56
30110;BME280;14965;50.660;13.226;2023-04-26T04:44:48;94733.28;;;2.03;93.82
30110;BME280;14965;50.660;13.226;2023-04-26T04:47:14;94744.94;;;1.99;93.42
30110;BME280;14965;50.660;13.226;2023-04-26T04:49:41;94742.25;;;2.03;93.59
30110;BME280;14965;50.660;13.226;2023-04-26T04:52:07;94750.03;;;2.08;93.57
30110;BME280;14965;50.660;13.226;2023-04-26T04:54:33;94748.84;;;2.13;92.86
30110;BME280;14965;50.660;13.226;2023-04-26T04:56:59;94746.16;;;2.16;92.82
30110;BME280;14965;50.660;13.226;2023-04-26T04:59:25;94752.00;;;2.22;93.13
30110;BME280;14965;50.660;13.226;2023-04-26T05:01:50;94756.28;;;2.27;92.24
30110;BME280;14965;50.660;13.226;2023-04-26T05:04:16;94761.34;;;2.32;92.45
30110;BME280;14965;50.660;13.226;2023-04-26T05:06:43;94758.22;;;2.30;92.31
30110;BME280;14965;50.660;13.226;2023-04-26T05:09:09;94765.25;;;2.27;91.61
30110;BME280;14965;50.660;13.226;2023-04-26T05:11:35;94766.03;;;2.28;92.40
30110;BME280;14965;50.660;13.226;2023-04-26T05:14:01;94766.41;;;2.33;91.95
30110;BME280;14965;50.660;13.226;2023-04-26T05:16:27;94764.47;;;2.30;92.24
30110;BME280;14965;50.660;13.226;2023-04-26T05:18:53;94766.41;;;2.19;92.22
30110;BME280;14965;50.660;13.226;2023-04-26T05:21:20;94767.56;;;2.18;92.81
30110;BME280;14965;50.660;13.226;2023-04-26T05:23:47;94768.31;;;2.11;93.36
30110;BME280;14965;50.660;13.226;2023-04-26T05:26:15;94767.94;;;2.09;92.65
30110;BME280;14965;50.660;13.226;2023-04-26T05:28:41;94772.22;;;2.10;92.64
30110;BME280;14965;50.660;13.226;2023-04-26T05:31:08;94778.81;;;1.98;92.07
30110;BME280;14965;50.660;13.226;2023-04-26T05:33:34;94779.19;;;1.97;91.87
30110;BME280;14965;50.660;13.226;2023-04-26T05:36:00;94789.69;;;1.95;91.51
30110;BME280;14965;50.660;13.226;2023-04-26T05:38:26;94796.31;;;1.94;91.48
30110;BME280;14965;50.660;13.226;2023-04-26T05:40:53;94790.44;;;1.92;90.34
30110;BME280;14965;50.660;13.226;2023-04-26T05:43:19;94795.94;;;2.06;90.78
30110;BME280;14965;50.660;13.226;2023-04-26T05:45:51;94799.50;;;2.17;90.56
30110;BME280;14965;50.660;13.226;2023-04-26T05:48:17;94810.78;;;2.23;89.84
30110;BME280;14965;50.660;13.226;2023-04-26T05:50:43;94814.66;;;2.15;88.94
30110;BME280;14965;50.660;13.226;2023-04-26T05:53:09;94810.34;;;2.07;89.50
30110;BME280;14965;50.660;13.226;2023-04-26T05:55:35;94821.22;;;2.03;89.44
30110;BME280;14965;50.660;13.226;2023-04-26T05:58:02;94822.00;;;2.07;90.24
30110;BME280;14965;50.660;13.226;2023-04-26T06:00:28;94823.19;;;2.06;89.87
30110;BME280;14965;50.660;13.226;2023-04-26T06:02:54;94817.38;;;2.15;89.73
30110;BME280;14965;50.660;13.226;2023-04-26T06:05:20;94818.53;;;2.21;87.93
30110;BME280;14965;50.660;13.226;2023-04-26T06:07:46;94819.28;;;2.07;87.26
30110;BME280;14965;50.660;13.226;2023-04-26T06:10:12;94813.84;;;2.04;87.42
30110;BME280;14965;50.660;13.226;2023-04-26T06:12:38;94814.59;;;2.04;88.43
30110;BME280;14965;50.660;13.226;2023-04-26T06:15:06;94811.88;;;2.04;88.53
30110;BME280;14965;50.660;13.226;2023-04-26T06:17:32;94823.56;;;2.01;87.87
30110;BME280;14965;50.660;13.226;2023-04-26T06:19:58;94819.28;;;2.04;87.96
30110;BME280;14965;50.660;13.226;2023-04-26T06:22:24;94821.25;;;2.21;87.92
30110;BME280;14965;50.660;13.226;2023-04-26T06:24:50;94815.06;;;2.24;86.36
30110;BME280;14965;50.660;13.226;2023-04-26T06:27:16;94822.50;;;2.34;85.59
30110;BME280;14965;50.660;13.226;2023-04-26T06:29:41;94820.91;;;2.30;85.47
30110;BME280;14965;50.660;13.226;2023-04-26T06:32:08;94818.59;;;2.49;86.21
30110;BME280;14965;50.660;13.226;2023-04-26T06:34:34;94813.56;;;2.77;86.47
30110;BME280;14965;50.660;13.226;2023-04-26T06:37:00;94825.63;;;2.83;85.04
30110;BME280;14965;50.660;13.226;2023-04-26T06:39:26;94827.59;;;2.79;85.16
30110;BME280;14965;50.660;13.226;2023-04-26T06:41:52;94825.25;;;2.59;84.21
30110;BME280;14965;50.660;13.226;2023-04-26T06:44:18;94838.44;;;2.46;84.41
30110;BME280;14965;50.660;13.226;2023-04-26T06:46:43;94826.00;;;2.53;85.33
30110;BME280;14965;50.660;13.226;2023-04-26T06:49:11;94829.13;;;2.65;84.57
30110;BME280;14965;50.660;13.226;2023-04-26T06:51:36;94829.53;;;2.74;84.51
30110;BME280;14965;50.660;13.226;2023-04-26T06:54:03;94833.03;;;2.71;80.58
30110;BME280;14965;50.660;13.226;2023-04-26T06:56:29;94832.66;;;2.91;81.75
30110;BME280;14965;50.660;13.226;2023-04-26T06:58:58;94825.63;;;3.11;80.80
30110;BME280;14965;50.660;13.226;2023-04-26T07:01:24;94826.81;;;3.14;80.00
30110;BME280;14965;50.660;13.226;2023-04-26T07:03:50;94828.75;;;3.03;79.60
30110;BME280;14965;50.660;13.226;2023-04-26T07:06:17;94825.66;;;2.97;79.70
30110;BME280;14965;50.660;13.226;2023-04-26T07:08:43;94831.47;;;3.03;80.49
30110;BME280;14965;50.660;13.226;2023-04-26T07:11:09;94836.56;;;2.93;79.25
30110;BME280;14965;50.660;13.226;2023-04-26T07:13:35;94838.50;;;2.89;80.19
30110;BME280;14965;50.660;13.226;2023-04-26T07:16:01;94836.94;;;2.85;79.00
30110;BME280;14965;50.660;13.226;2023-04-26T07:18:27;94838.47;;;3.32;81.29
30110;BME280;14965;50.660;13.226;2023-04-26T07:20:53;94826.72;;;3.57;75.99
30110;BME280;14965;50.660;13.226;2023-04-26T07:23:20;94824.38;;;3.59;73.47
30110;BME280;14965;50.660;13.226;2023-04-26T07:25:46;94827.91;;;3.48;73.77
30110;BME280;14965;50.660;13.226;2023-04-26T07:28:12;94822.88;;;3.36;75.84
30110;BME280;14965;50.660;13.226;2023-04-26T07:30:37;94837.69;;;3.24;74.93
30110;BME280;14965;50.660;13.226;2023-04-26T07:33:03;94838.09;;;3.19;76.58
30110;BME280;14965;50.660;13.226;2023-04-26T07:35:29;94839.28;;;3.22;77.48
30110;BME280;14965;50.660;13.226;2023-04-26T07:37:55;94842.78;;;3.22;75.53
30110;BME280;14965;50.660;13.226;2023-04-26T07:40:23;94835.38;;;3.23;75.95
30110;BME280;14965;50.660;13.226;2023-04-26T07:42:49;94837.25;;;3.51;76.25
30110;BME280;14965;50.660;13.226;2023-04-26T07:45:15;94830.47;;;4.02;73.85
30110;BME280;14965;50.660;13.226;2023-04-26T07:47:41;94835.31;;;4.43;73.69
30110;BME280;14965;50.660;13.226;2023-04-26T07:50:09;94829.19;;;4.24;70.13
30110;BME280;14965;50.660;13.226;2023-04-26T07:52:35;94838.63;;;4.09;71.37
30110;BME280;14965;50.660;13.226;2023-04-26T07:55:01;94838.34;;;3.79;69.95
30110;BME280;14965;50.660;13.226;2023-04-26T07:57:28;94838.06;;;3.48;70.61
30110;BME280;14965;50.660;13.226;2023-04-26T07:59:54;94842.75;;;3.47;72.89
30110;BME280;14965;50.660;13.226;2023-04-26T08:02:20;94837.28;;;3.44;74.66
30110;BME280;14965;50.660;13.226;2023-04-26T08:04:49;94840.75;;;3.55;75.41
30110;BME280;14965;50.660;13.226;2023-04-26T08:07:15;94849.75;;;3.52;74.10
30110;BME280;14965;50.660;13.226;2023-04-26T08:09:41;94841.56;;;3.52;72.53
30110;BME280;14965;50.660;13.226;2023-04-26T08:12:07;94855.44;;;4.00;71.88
30110;BME280;14965;50.660;13.226;2023-04-26T08:14:35;94850.69;;;4.19;70.10
30110;BME280;14965;50.660;13.226;2023-04-26T08:17:01;94855.00;;;4.16;68.02
30110;BME280;14965;50.660;13.226;2023-04-26T08:19:26;94847.97;;;4.15;68.37
30110;BME280;14965;50.660;13.226;2023-04-26T08:21:52;94852.63;;;4.22;67.76
30110;BME280;14965;50.660;13.226;2023-04-26T08:24:18;94849.13;;;4.18;67.96
30110;BME280;14965;50.660;13.226;2023-04-26T08:26:44;94856.91;;;4.27;70.39
30110;BME280;14965;50.660;13.226;2023-04-26T08:29:10;94857.38;;;4.07;67.46
30110;BME280;14965;50.660;13.226;2023-04-26T08:31:37;94852.00;;;3.89;68.96
30110;BME280;14965;50.660;13.226;2023-04-26T08:37:50;94857.72;;;4.23;69.70
30110;BME280;14965;50.660;13.226;2023-04-26T08:40:54;94857.97;;;4.47;69.94
30110;BME280;14965;50.660;13.226;2023-04-26T08:43:30;94863.84;;;4.45;67.17
30110;BME280;14965;50.660;13.226;2023-04-26T08:45:58;94859.97;;;4.39;67.72
30110;BME280;14965;50.660;13.226;2023-04-26T08:48:27;94853.91;;;4.77;66.52
30110;BME280;14965;50.660;13.226;2023-04-26T08:50:57;94854.38;;;5.16;67.00
30110;BME280;14965;50.660;13.226;2023-04-26T08:53:26;94854.63;;;5.33;65.43
30110;BME280;14965;50.660;13.226;2023-04-26T08:56:15;94857.91;;;5.13;65.16
30110;BME280;14965;50.660;13.226;2023-04-26T08:59:12;94869.59;;;4.65;59.75
30110;BME280;14965;50.660;13.226;2023-04-26T09:01:43;94865.06;;;4.30;61.23
30110;BME280;14965;50.660;13.226;2023-04-26T09:04:16;94864.03;;;4.03;62.59
30110;BME280;14965;50.660;13.226;2023-04-26T09:06:42;94866.44;;;3.75;63.58
30110;BME280;14965;50.660;13.226;2023-04-26T09:09:21;94866.06;;;3.77;65.92
30110;BME280;14965;50.660;13.226;2023-04-26T09:11:53;94863.63;;;4.00;67.42
30110;BME280;14965;50.660;13.226;2023-04-26T09:14:23;94876.84;;;4.16;66.76
30110;BME280;14965;50.660;13.226;2023-04-26T09:16:58;94875.56;;;4.46;65.84
30110;BME280;14965;50.660;13.226;2023-04-26T09:19:36;94876.19;;;4.68;63.33
30110;BME280;14965;50.660;13.226;2023-04-26T09:22:08;94876.88;;;4.90;63.05
30110;BME280;14965;50.660;13.226;2023-04-26T09:24:50;94869.81;;;4.89;59.90
30110;BME280;14965;50.660;13.226;2023-04-26T09:27:20;94873.69;;;4.95;62.09
30110;BME280;14965;50.660;13.226;2023-04-26T09:30:02;94869.75;;;4.99;59.29
30110;BME280;14965;50.660;13.226;2023-04-26T09:32:48;94870.63;;;4.89;62.32
30110;BME280;14965;50.660;13.226;2023-04-26T09:35:33;94861.03;;;5.15;63.19
30110;BME280;14965;50.660;13.226;2023-04-26T09:40:46;94862.34;;;5.45;58.75
30110;BME280;14965;50.660;13.226;2023-04-26T09:43:17;94878.50;;;5.32;57.95
30110;BME280;14965;50.660;13.226;2023-04-26T09:45:46;94870.44;;;5.14;58.44
30110;BME280;14965;50.660;13.226;2023-04-26T09:48:16;94871.56;;;5.17;59.66
30110;BME280;14965;50.660;13.226;2023-04-26T09:50:45;94868.09;;;5.09;57.73
30110;BME280;14965;50.660;13.226;2023-04-26T09:53:11;94873.19;;;5.11;60.93
30110;BME280;14965;50.660;13.226;2023-04-26T09:56:12;94874.25;;;5.24;59.81
30110;BME280;14965;50.660;13.226;2023-04-26T09:59:55;94882.44;;;5.28;58.56
30110;BME280;14965;50.660;13.226;2023-04-26T10:09:11;94870.25;;;5.77;58.79
30110;BME280;14965;50.660;13.226;2023-04-26T10:11:52;94859.84;;;5.61;57.12
30110;BME280;14965;50.660;13.226;2023-04-26T10:14:26;94861.38;;;5.62;56.86
30110;BME280;14965;50.660;13.226;2023-04-26T10:17:20;94869.84;;;5.37;56.04
30110;BME280;14965;50.660;13.226;2023-04-26T10:20:01;94877.84;;;5.14;60.04
30110;BME280;14965;50.660;13.226;2023-04-26T10:34:35;94861.88;;;5.95;60.59
30110;BME280;14965;50.660;13.226;2023-04-26T10:37:12;94860.69;;;6.27;54.76
30110;BME280;14965;50.660;13.226;2023-04-26T10:39:45;94858.13;;;6.43;53.92
30110;BME280;14965;50.660;13.226;2023-04-26T10:42:32;94865.34;;;6.60;55.00
30110;BME280;14965;50.660;13.226;2023-04-26T10:45:04;94869.13;;;6.73;53.98
30110;BME280;14965;50.660;13.226;2023-04-26T10:48:13;94857.31;;;6.46;51.05
30110;BME280;14965;50.660;13.226;2023-04-26T10:51:07;94856.78;;;6.28;53.49
30110;BME280;14965;50.660;13.226;2023-04-26T10:53:59;94861.53;;;6.23;54.28
30110;BME280;14965;50.660;13.226;2023-04-26T10:56:50;94863.81;;;6.29;54.05
30110;BME280;14965;50.660;13.226;2023-04-26T10:59:27;94851.16;;;6.38;54.46
30110;BME280;14965;50.660;13.226;2023-04-26T11:01:53;94847.50;;;6.76;54.11
30110;BME280;14965;50.660;13.226;2023-04-26T11:04:21;94841.72;;;7.44;53.68
30110;BME280;14965;50.660;13.226;2023-04-26T11:06:48;94832.50;;;7.78;49.13
30110;BME280;14965;50.660;13.226;2023-04-26T11:09:33;94846.00;;;7.68;48.33
30110;BME280;14965;50.660;13.226;2023-04-26T11:11:59;94847.47;;;7.30;50.24
30110;BME280;14965;50.660;13.226;2023-04-26T11:14:25;94838.34;;;6.86;50.38
30110;BME280;14965;50.660;13.226;2023-04-26T11:16:51;94857.91;;;6.61;50.58
30110;BME280;14965;50.660;13.226;2023-04-26T11:19:17;94860.19;;;6.35;49.58
30110;BME280;14965;50.660;13.226;2023-04-26T11:21:45;94871.59;;;6.34;51.83
30110;BME280;14965;50.660;13.226;2023-04-26T11:24:14;94855.81;;;6.11;51.58
30110;BME280;14965;50.660;13.226;2023-04-26T11:26:40;94860.50;;;6.10;50.54
30110;BME280;14965;50.660;13.226;2023-04-26T11:29:06;94851.25;;;5.97;51.27
30110;BME280;14965;50.660;13.226;2023-04-26T11:31:33;94853.69;;;5.88;51.96
30110;BME280;14965;50.660;13.226;2023-04-26T11:34:03;94845.91;;;6.20;53.93
30110;BME280;14965;50.660;13.226;2023-04-26T11:36:29;94850.13;;;6.56;51.46
30110;BME280;14965;50.660;13.226;2023-04-26T11:38:56;94839.66;;;6.78;52.68
30110;BME280;14965;50.660;13.226;2023-04-26T11:41:22;94848.47;;;6.89;52.32
30110;BME280;14965;50.660;13.226;2023-04-26T11:43:48;94851.41;;;6.78;50.82
30110;BME280;14965;50.660;13.226;2023-04-26T11:46:14;94859.97;;;6.53;51.80
30110;BME280;14965;50.660;13.226;2023-04-26T11:48:40;94850.06;;;6.32;50.54
30110;BME280;14965;50.660;13.226;2023-04-26T11:51:07;94856.38;;;6.29;51.28
30110;BME280;14965;50.660;13.226;2023-04-26T11:53:35;94852.47;;;6.27;51.11
30110;BME280;14965;50.660;13.226;2023-04-26T11:56:04;94865.97;;;6.44;51.87
30110;BME280;14965;50.660;13.226;2023-04-26T11:58:30;94864.63;;;6.56;52.21
30110;BME280;14965;50.660;13.226;2023-04-26T12:00:57;94860.78;;;6.50;51.42
30110;BME280;14965;50.660;13.226;2023-04-26T12:03:28;94859.13;;;6.56;51.38
30110;BME280;14965;50.660;13.226;2023-04-26T12:05:54;94858.56;;;6.68;51.21
30110;BME280;14965;50.660;13.226;2023-04-26T12:08:23;94868.53;;;6.59;49.60
30110;BME280;14965;50.660;13.226;2023-04-26T12:10:49;94871.94;;;6.66;51.32
30110;BME280;14965;50.660;13.226;2023-04-26T12:13:18;94865.00;;;6.58;51.71
30110;BME280;14965;50.660;13.226;2023-04-26T12:15:45;94879.38;;;6.69;50.19
30110;BME280;14965;50.660;13.226;2023-04-26T12:18:11;94869.16;;;6.97;50.73
30110;BME280;14965;50.660;13.226;2023-04-26T12:20:39;94862.25;;;7.12;50.69
30110;BME280;14965;50.660;13.226;2023-04-26T12:23:07;94859.88;;;7.14;49.72
30110;BME280;14965;50.660;13.226;2023-04-26T12:25:34;94861.84;;;7.14;48.23
30110;BME280;14965;50.660;13.226;2023-04-26T12:28:02;94864.47;;;7.21;48.36
30110;BME280;14965;50.660;13.226;2023-04-26T12:30:30;94854.22;;;7.25;48.32
30110;BME280;14965;50.660;13.226;2023-04-26T12:32:56;94842.78;;;7.27;48.37
30110;BME280;14965;50.660;13.226;2023-04-26T12:35:23;94841.72;;;7.44;48.79
30110;BME280;14965;50.660;13.226;2023-04-26T12:37:50;94849.97;;;7.67;48.66
30110;BME280;14965;50.660;13.226;2023-04-26T12:40:16;94847.81;;;7.55;49.44
30110;BME280;14965;50.660;13.226;2023-04-26T12:42:42;94859.78;;;7.45;46.76
30110;BME280;14965;50.660;13.226;2023-04-26T12:45:09;94861.91;;;7.34;46.98
30110;BME280;14965;50.660;13.226;2023-04-26T12:47:36;94855.66;;;7.33;48.12
30110;BME280;14965;50.660;13.226;2023-04-26T12:50:02;94865.47;;;7.07;48.55
30110;BME280;14965;50.660;13.226;2023-04-26T12:52:29;94859.13;;;6.87;48.38
30110;BME280;14965;50.660;13.226;2023-04-26T12:54:55;94854.34;;;6.91;48.93
30110;BME280;14965;50.660;13.226;2023-04-26T12:57:21;94852.91;;;7.06;48.70
30110;BME280;14965;50.660;13.226;2023-04-26T12:59:47;94856.03;;;7.08;49.46
30110;BME280;14965;50.660;13.226;2023-04-26T13:02:13;94857.63;;;7.33;49.35
30110;BME280;14965;50.660;13.226;2023-04-26T13:04:40;94854.69;;;7.67;46.96
30110;BME280;14965;50.660;13.226;2023-04-26T13:07:06;94848.78;;;7.88;46.89
30110;BME280;14965;50.660;13.226;2023-04-26T13:09:32;94855.56;;;7.60;44.34
30110;BME280;14965;50.660;13.226;2023-04-26T13:11:58;94854.69;;;7.20;48.36
30110;BME280;14965;50.660;13.226;2023-04-26T13:14:24;94857.19;;;7.11;48.28
30110;BME280;14965;50.660;13.226;2023-04-26T13:16:50;94865.44;;;7.11;48.09
30110;BME280;14965;50.660;13.226;2023-04-26T13:19:16;94866.22;;;7.11;49.63
30110;BME280;14965;50.660;13.226;2023-04-26T13:21:43;94868.75;;;6.98;48.75
30110;BME280;14965;50.660;13.226;2023-04-26T13:24:09;94866.28;;;6.77;47.94
30110;BME280;14965;50.660;13.226;2023-04-26T13:26:35;94851.19;;;6.65;46.80
30110;BME280;14965;50.660;13.226;2023-04-26T13:29:01;94862.16;;;6.65;48.14
30110;BME280;14965;50.660;13.226;2023-04-26T13:31:26;94859.44;;;6.65;48.67